Time;durP1;ratioP1;P1;durP2;ratioP2;P2;SDS_P1;SDS_P2;PMS_P1;PMS_P2;Temp;Humidity;BMP_temperature;BMP_pressure;BME280_temperature;BME280_humidity;BME280_pressure;Samples;Min_cycle;Max_cycle;Signal;HPM_P1;HPM_P2
2022/10/02 00:00:21;;;;;;;2.00;1.03;;;;;;;;;;5013386;28;20460;-75
2022/10/02 00:02:52;;;;;;;3.70;1.77;;;11.80;99.90;;;;;;5013176;28;20444;-75
2022/10/02 00:05:22;;;;;;;2.10;1.20;;;11.80;99.90;;;;;;5010613;28;20855;-76
2022/10/02 00:07:57;;;;;;;2.47;1.30;;;11.90;99.90;;;;;;5013139;28;20547;-76
2022/10/02 00:10:29;;;;;;;3.10;1.30;;;11.90;99.90;;;;;;5013221;28;20448;-76
2022/10/02 00:13:00;;;;;;;2.53;1.20;;;11.90;99.90;;;;;;5013193;28;20457;-77
2022/10/02 00:15:31;;;;;;;7.20;1.50;;;12.00;99.90;;;;;;5012090;28;20468;-79
2022/10/02 00:18:02;;;;;;;7.07;2.10;;;11.70;99.90;;;;;;5012688;28;20456;-81
2022/10/02 00:20:39;;;;;;;2.77;1.53;;;12.00;99.90;;;;;;5011933;28;20531;-76
2022/10/02 00:23:11;;;;;;;2.90;0.87;;;11.90;99.90;;;;;;5013088;28;21013;-79
2022/10/02 00:25:44;;;;;;;10.97;1.90;;;11.90;99.90;;;;;;5011928;28;21032;-77
2022/10/02 00:28:19;;;;;;;3.07;1.43;;;12.00;99.90;;;;;;5011831;28;20467;-76
2022/10/02 00:31:07;;;;;;;3.57;1.20;;;11.90;99.90;;;;;;5012982;28;20452;-78
2022/10/02 00:33:46;;;;;;;5.40;1.40;;;11.90;99.90;;;;;;5012903;28;20452;-81
2022/10/02 00:36:24;;;;;;;5.23;1.47;;;11.90;99.90;;;;;;5010886;28;20464;-78
2022/10/02 00:39:02;;;;;;;2.33;1.30;;;11.90;99.90;;;;;;5012701;28;20447;-78
2022/10/02 00:42:01;;;;;;;7.30;1.33;;;11.90;99.90;;;;;;5011728;28;20472;-79
2022/10/02 00:44:44;;;;;;;3.80;1.83;;;11.90;99.90;;;;;;5012673;28;20483;-80
2022/10/02 00:47:20;;;;;;;7.20;1.10;;;11.90;99.90;;;;;;4993079;28;20457;-80
2022/10/02 00:49:58;;;;;;;6.93;1.53;;;12.00;99.90;;;;;;4992044;28;20445;-80
2022/10/02 00:52:45;;;;;;;3.43;1.47;;;12.00;99.90;;;;;;4993162;28;20441;-76
2022/10/02 00:55:42;;;;;;;5.80;1.47;;;12.00;99.90;;;;;;4996643;28;20475;-78
2022/10/02 00:58:24;;;;;;;3.77;3.27;;;12.10;99.90;;;;;;4995582;28;20819;-79
2022/10/02 01:00:59;;;;;;;7.00;2.00;;;12.10;99.90;;;;;;5012685;28;20805;-77
2022/10/02 01:03:29;;;;;;;7.80;2.00;;;12.10;99.90;;;;;;5012520;28;20463;-78
2022/10/02 01:05:56;;;;;;;4.50;1.53;;;;;;;;;;5009890;28;20510;-77
2022/10/02 01:08:24;;;;;;;1.63;1.10;;;;;;;;;;5012621;28;20452;-77
2022/10/02 01:10:53;;;;;;;4.00;1.23;;;12.10;99.90;;;;;;5012503;28;20799;-75
2022/10/02 01:13:20;;;;;;;2.20;1.00;;;12.10;99.90;;;;;;5012448;28;20459;-78
2022/10/02 01:15:51;;;;;;;5.90;1.53;;;12.10;99.90;;;;;;5012582;28;20444;-75
2022/10/02 01:18:19;;;;;;;0.90;0.70;;;;;;;;;;5011861;28;20464;-80
2022/10/02 01:20:48;;;;;;;3.57;1.43;;;12.10;99.90;;;;;;5009373;28;20464;-79
2022/10/02 01:23:24;;;;;;;2.40;1.20;;;12.10;99.90;;;;;;5011408;28;20924;-77
2022/10/02 01:25:52;;;;;;;5.37;1.80;;;;;;;;;;5012357;28;20495;-80
2022/10/02 01:28:19;;;;;;;2.27;1.20;;;;;;;;;;5012355;28;20944;-77
2022/10/02 01:30:50;;;;;;;9.00;1.30;;;12.10;99.90;;;;;;5012691;28;20476;-79
2022/10/02 01:33:17;;;;;;;3.00;1.73;;;;;;;;;;5016070;28;20456;-79
2022/10/02 01:35:44;;;;;;;3.17;1.20;;;;;;;;;;5014936;28;20839;-77
2022/10/02 01:38:13;;;;;;;3.47;1.70;;;12.10;99.90;;;;;;5016109;28;20456;-77
2022/10/02 01:40:41;;;;;;;7.23;1.60;;;12.10;99.90;;;;;;5016003;28;20448;-78
2022/10/02 01:43:12;;;;;;;8.10;1.80;;;12.10;99.90;;;;;;5014886;28;20460;-77
2022/10/02 01:45:54;;;;;;;2.20;1.23;;;12.10;99.90;;;;;;5015741;28;20977;-76
2022/10/02 01:48:34;;;;;;;3.33;1.27;;;12.20;99.90;;;;;;5015887;28;20449;-78
2022/10/02 01:51:24;;;;;;;1.73;1.23;;;12.10;99.90;;;;;;5014523;28;20454;-77
2022/10/02 01:53:59;;;;;;;3.10;1.23;;;12.10;99.90;;;;;;5012258;28;20468;-77
2022/10/02 01:56:37;;;;;;;5.20;1.60;;;12.20;99.90;;;;;;5014561;28;20947;-78
2022/10/02 01:59:15;;;;;;;7.30;1.53;;;12.10;99.90;;;;;;5015907;28;20807;-79
2022/10/02 02:01:51;;;;;;;6.80;1.60;;;12.20;99.90;;;;;;5015972;28;20458;-79
2022/10/02 02:04:23;;;;;;;5.47;1.50;;;12.20;99.90;;;;;;5014373;28;20480;-77
2022/10/02 02:06:59;;;;;;;11.63;1.93;;;12.20;99.90;;;;;;5015765;28;21003;-79
2022/10/02 02:09:34;;;;;;;3.37;1.87;;;12.10;99.90;;;;;;5014274;28;20463;-79
2022/10/02 02:12:08;;;;;;;5.80;1.30;;;12.10;99.90;;;;;;5015808;28;20462;-78
2022/10/02 02:14:42;;;;;;;2.07;1.27;;;12.10;99.90;;;;;;5014601;28;20837;-78
2022/10/02 02:17:15;;;;;;;3.87;1.40;;;12.20;99.90;;;;;;5015759;28;20460;-79
2022/10/02 02:19:47;;;;;;;7.73;1.80;;;12.20;99.90;;;;;;5014390;28;20488;-80
2022/10/02 02:22:21;;;;;;;5.80;1.00;;;12.20;99.90;;;;;;5015358;28;20463;-78
2022/10/02 02:24:53;;;;;;;9.43;1.50;;;12.20;99.90;;;;;;5015615;28;20832;-77
2022/10/02 02:27:24;;;;;;;7.37;1.50;;;12.20;99.90;;;;;;5015376;28;20592;-80
2022/10/02 02:29:57;;;;;;;6.90;1.20;;;12.20;99.90;;;;;;5015429;28;20823;-78
2022/10/02 02:32:29;;;;;;;2.80;1.57;;;12.20;99.90;;;;;;5015322;28;20956;-78
2022/10/02 02:35:02;;;;;;;10.40;1.80;;;12.30;99.90;;;;;;5013091;28;20467;-79
2022/10/02 02:37:32;;;;;;;7.47;1.73;;;12.30;99.90;;;;;;5015261;28;20465;-81
2022/10/02 02:40:04;;;;;;;4.73;1.70;;;12.30;99.90;;;;;;5015367;28;20459;-79
2022/10/02 02:42:35;;;;;;;3.00;1.50;;;12.30;99.90;;;;;;5015144;28;20448;-77
2022/10/02 02:45:09;;;;;;;5.67;1.53;;;12.30;99.90;;;;;;5015063;28;20444;-78
2022/10/02 02:47:41;;;;;;;3.43;1.50;;;12.30;99.90;;;;;;5013081;28;20491;-78
2022/10/02 02:50:15;;;;;;;6.57;1.50;;;12.20;99.90;;;;;;4994300;28;20449;-81
2022/10/02 02:52:48;;;;;;;5.10;1.57;;;12.30;99.90;;;;;;4995393;28;20952;-79
2022/10/02 02:55:19;;;;;;;3.83;1.73;;;12.30;99.90;;;;;;4995504;28;20473;-81
2022/10/02 02:57:52;;;;;;;5.00;2.53;;;12.20;99.90;;;;;;4995436;28;20456;-78
2022/10/02 03:00:21;;;;;;;10.00;2.33;;;12.20;99.90;;;;;;4994847;28;20442;-78
2022/10/02 03:02:49;;;;;;;9.17;2.00;;;;;;;;;;4995187;28;20547;-78
2022/10/02 03:05:18;;;;;;;8.90;1.47;;;12.20;99.90;;;;;;4993879;28;20870;-81
2022/10/02 03:07:52;;;;;;;4.17;1.60;;;12.20;99.90;;;;;;4994833;28;20880;-79
2022/10/02 03:10:28;;;;;;;4.13;1.50;;;12.20;99.90;;;;;;4998371;28;20496;-82
2022/10/02 03:13:04;;;;;;;4.73;2.10;;;12.10;99.90;;;;;;5014681;28;20460;-79
2022/10/02 03:15:40;;;;;;;3.60;1.47;;;12.10;99.90;;;;;;5014557;28;20459;-81
2022/10/02 03:18:36;;;;;;;12.70;2.40;;;12.10;99.90;;;;;;5014549;28;20452;-81
2022/10/02 03:21:11;;;;;;;6.20;1.57;;;12.20;99.90;;;;;;5013326;28;20449;-78
2022/10/02 03:23:53;;;;;;;7.87;1.37;;;12.20;99.90;;;;;;5014305;28;20443;-79
2022/10/02 03:26:26;;;;;;;9.17;1.53;;;12.10;99.90;;;;;;5011242;28;20492;-78
2022/10/02 03:28:56;;;;;;;3.57;1.60;;;12.20;99.90;;;;;;5014413;28;20452;-78
2022/10/02 03:31:28;;;;;;;10.90;2.03;;;12.10;99.90;;;;;;5014227;28;20947;-79
2022/10/02 03:33:57;;;;;;;10.03;1.90;;;12.10;99.90;;;;;;5013149;28;20471;-79
2022/10/02 03:36:24;;;;;;;7.60;1.97;;;12.20;99.90;;;;;;5013022;28;20459;-79
2022/10/02 03:38:53;;;;;;;11.30;2.20;;;12.20;99.90;;;;;;5014200;28;20453;-79
2022/10/02 03:41:20;;;;;;;4.60;1.40;;;;;;;;;;5014154;28;20527;-79
2022/10/02 03:43:47;;;;;;;8.87;1.60;;;;;;;;;;5014027;28;20444;-79
2022/10/02 03:46:14;;;;;;;6.63;1.60;;;;;;;;;;5013941;28;20475;-79
2022/10/02 03:48:42;;;;;;;6.07;1.57;;;12.10;99.90;;;;;;5012888;28;20563;-81
2022/10/02 03:51:09;;;;;;;7.30;1.57;;;;;;;;;;5012804;28;20823;-81
2022/10/02 03:53:36;;;;;;;5.60;2.00;;;;;;;;;;5013512;28;20452;-79
2022/10/02 03:56:06;;;;;;;5.27;1.60;;;12.10;99.90;;;;;;5013911;28;20459;-80
2022/10/02 03:58:37;;;;;;;5.67;1.90;;;12.10;99.90;;;;;;5013799;28;20444;-81
2022/10/02 04:01:10;;;;;;;9.27;1.90;;;12.10;99.90;;;;;;5011404;28;22359;-79
2022/10/02 04:03:41;;;;;;;6.00;1.43;;;12.10;99.90;;;;;;5012645;28;20491;-80
2022/10/02 04:06:15;;;;;;;7.30;1.70;;;12.10;99.90;;;;;;5011670;28;20496;-80
2022/10/02 04:08:46;;;;;;;7.03;1.63;;;12.10;99.90;;;;;;5012832;28;20451;-81
2022/10/02 04:11:20;;;;;;;8.10;1.80;;;12.10;99.90;;;;;;5012825;28;20461;-80
2022/10/02 04:13:55;;;;;;;6.10;1.50;;;12.10;99.90;;;;;;5012738;28;20475;-79
2022/10/02 04:16:29;;;;;;;7.50;1.93;;;12.10;99.90;;;;;;5012797;28;20448;-79
2022/10/02 04:18:58;;;;;;;3.87;1.40;;;12.10;99.90;;;;;;5009607;28;20467;-79
2022/10/02 04:21:41;;;;;;;10.67;1.60;;;12.10;99.90;;;;;;5011478;28;20482;-82
2022/10/02 04:24:18;;;;;;;5.70;1.83;;;12.10;99.90;;;;;;5012278;28;20479;-80
2022/10/02 04:26:52;;;;;;;7.50;1.90;;;12.10;99.90;;;;;;5012496;28;20492;-81
2022/10/02 04:29:24;;;;;;;6.00;1.87;;;12.10;99.90;;;;;;5011317;28;20974;-79
2022/10/02 04:31:57;;;;;;;14.67;2.17;;;12.10;99.90;;;;;;5012488;28;20456;-79
2022/10/02 04:34:24;;;;;;;6.00;2.00;;;;;;;;;;5011249;28;20828;-80
2022/10/02 04:37:08;;;;;;;4.80;1.90;;;12.10;99.90;;;;;;5012508;28;20475;-79
2022/10/02 04:39:51;;;;;;;6.80;2.47;;;12.10;99.90;;;;;;5010949;28;20455;-81
2022/10/02 04:42:33;;;;;;;1.90;1.60;;;12.10;99.90;;;;;;5011379;28;20459;-79
2022/10/02 04:45:16;;;;;;;3.23;1.60;;;12.10;99.90;;;;;;5011481;28;20452;-79
2022/10/02 04:48:03;;;;;;;8.70;1.80;;;12.10;99.90;;;;;;5012228;28;20491;-79
2022/10/02 04:50:42;;;;;;;10.03;2.10;;;12.00;99.90;;;;;;5009979;28;20460;-80
2022/10/02 04:53:45;;;;;;;13.77;2.93;;;12.00;99.90;;;;;;5012322;28;20810;-79
2022/10/02 04:56:37;;;;;;;7.63;2.20;;;12.00;99.90;;;;;;5011265;28;20466;-80
2022/10/02 04:59:18;;;;;;;3.43;1.50;;;12.00;99.90;;;;;;5012300;28;20527;-81
2022/10/02 05:02:02;;;;;;;7.70;1.77;;;12.00;99.90;;;;;;5011990;28;20951;-81
2022/10/02 05:05:01;;;;;;;4.37;1.57;;;11.90;99.90;;;;;;4974061;28;1060840;-79
2022/10/02 05:07:41;;;;;;;2.50;1.80;;;11.90;99.90;;;;;;5016900;28;20503;-79
2022/10/02 05:10:36;;;;;;;7.00;2.53;;;11.90;99.90;;;;;;5012892;28;20460;-79
2022/10/02 05:13:16;;;;;;;5.37;2.03;;;11.90;99.90;;;;;;5016927;28;20940;-81
2022/10/02 05:15:54;;;;;;;6.70;2.00;;;11.90;99.90;;;;;;5017542;28;20456;-80
2022/10/02 05:18:51;;;;;;;4.67;1.90;;;11.90;99.90;;;;;;5015670;28;20502;-81
2022/10/02 05:21:31;;;;;;;4.53;1.53;;;11.80;99.90;;;;;;4982316;28;20465;-79
2022/10/02 05:24:16;;;;;;;8.63;2.00;;;11.80;99.90;;;;;;5016585;28;20448;-80
2022/10/02 05:27:06;;;;;;;3.97;1.47;;;11.80;99.90;;;;;;5016263;28;20483;-80
2022/10/02 05:30:06;;;;;;;5.37;1.73;;;11.60;99.90;;;;;;5016569;28;20940;-80
2022/10/02 05:33:07;;;;;;;5.33;1.67;;;11.80;99.90;;;;;;5013424;28;20951;-80
2022/10/02 05:36:05;;;;;;;1.90;1.70;;;11.80;99.90;;;;;;5015067;28;20456;-82
2022/10/02 05:38:53;;;;;;;3.57;1.47;;;11.70;99.90;;;;;;5016412;28;20444;-79
2022/10/02 05:41:24;;;;;;;3.37;1.50;;;11.70;99.90;;;;;;5016228;28;20502;-79
2022/10/02 05:44:01;;;;;;;7.20;1.50;;;11.80;99.90;;;;;;5015963;28;20448;-79
2022/10/02 05:46:34;;;;;;;5.57;1.33;;;11.70;99.90;;;;;;5015958;28;20546;-80
2022/10/02 05:49:06;;;;;;;5.57;1.33;;;11.80;99.90;;;;;;5013342;28;20452;-78
2022/10/02 05:51:41;;;;;;;5.13;1.50;;;11.70;99.90;;;;;;5016130;28;20456;-80
2022/10/02 05:54:20;;;;;;;3.80;1.83;;;11.80;99.90;;;;;;5016133;28;20953;-78
2022/10/02 05:56:54;;;;;;;4.53;1.53;;;11.70;99.90;;;;;;5016122;28;20935;-78
2022/10/02 05:59:28;;;;;;;3.67;1.33;;;11.60;99.90;;;;;;5014508;28;20916;-80
2022/10/02 06:01:58;;;;;;;4.13;1.60;;;11.70;99.90;;;;;;5015820;28;20963;-80
2022/10/02 06:04:33;;;;;;;4.10;1.47;;;11.70;99.90;;;;;;5014913;28;20532;-77
2022/10/02 06:07:06;;;;;;;5.63;2.37;;;11.70;99.90;;;;;;4996218;28;20499;-78
2022/10/02 06:09:39;;;;;;;13.83;7.00;;;11.70;99.90;;;;;;4996316;28;20485;-81
2022/10/02 06:12:11;;;;;;;30.60;16.80;;;11.50;99.90;;;;;;4996285;28;20456;-78
2022/10/02 06:14:43;;;;;;;6.70;3.83;;;11.80;99.90;;;;;;4996039;28;20913;-78
2022/10/02 06:17:13;;;;;;;14.13;5.23;;;11.80;99.90;;;;;;5015269;28;20834;-79
2022/10/02 06:19:47;;;;;;;18.70;8.27;;;11.90;99.90;;;;;;5014552;28;20464;-80
2022/10/02 06:22:18;;;;;;;18.90;7.77;;;12.00;99.90;;;;;;5015558;28;20946;-78
2022/10/02 06:24:51;;;;;;;23.93;9.57;;;11.90;99.90;;;;;;5013829;28;20519;-81
2022/10/02 06:27:28;;;;;;;5.40;2.53;;;11.90;99.90;;;;;;5013573;28;20484;-80
2022/10/02 06:30:01;;;;;;;17.87;9.00;;;11.90;99.90;;;;;;4995952;28;20457;-80
2022/10/02 06:32:35;;;;;;;8.73;3.97;;;11.90;99.90;;;;;;5005497;28;20450;-79
2022/10/02 06:35:11;;;;;;;5.50;2.47;;;11.90;99.90;;;;;;5014015;28;20455;-80
2022/10/02 06:37:50;;;;;;;10.97;4.10;;;11.90;99.90;;;;;;5014909;28;20474;-81
2022/10/02 06:40:41;;;;;;;7.47;3.73;;;12.00;99.90;;;;;;5015247;28;20451;-81
2022/10/02 06:43:19;;;;;;;4.97;2.90;;;12.00;99.90;;;;;;5014345;28;20940;-80
2022/10/02 06:45:57;;;;;;;25.37;14.00;;;12.00;99.90;;;;;;5013542;28;20479;-82
2022/10/02 06:48:28;;;;;;;12.77;6.10;;;12.60;99.90;;;;;;5014729;28;20499;-78
2022/10/02 06:51:05;;;;;;;40.03;18.93;;;12.00;99.90;;;;;;5013642;28;20503;-81
2022/10/02 06:53:55;;;;;;;31.20;19.87;;;12.10;99.90;;;;;;5012694;28;20468;-79
2022/10/02 06:56:37;;;;;;;16.47;11.87;;;12.10;99.90;;;;;;4995342;28;20476;-81
2022/10/02 06:59:22;;;;;;;8.73;3.60;;;12.20;99.90;;;;;;5004834;28;20448;-79
2022/10/02 07:01:57;;;;;;;16.27;4.30;;;12.20;99.90;;;;;;5014617;28;20858;-80
2022/10/02 07:04:41;;;;;;;6.10;2.83;;;12.20;99.90;;;;;;5013694;28;20459;-80
2022/10/02 07:07:21;;;;;;;6.97;2.43;;;12.30;99.90;;;;;;5014226;28;21003;-78
2022/10/02 07:10:14;;;;;;;7.50;2.37;;;12.30;99.90;;;;;;5014493;28;20453;-79
2022/10/02 07:13:01;;;;;;;6.47;2.37;;;12.40;99.90;;;;;;4994004;28;20457;-80
2022/10/02 07:16:07;;;;;;;6.10;1.80;;;12.40;99.90;;;;;;4995055;28;20461;-82
2022/10/02 07:18:49;;;;;;;4.30;2.17;;;12.40;99.90;;;;;;4995120;28;20503;-79
2022/10/02 07:21:24;;;;;;;5.50;1.90;;;12.40;99.90;;;;;;4993727;28;20450;-81
2022/10/02 07:23:59;;;;;;;5.10;2.50;;;12.50;99.90;;;;;;5000251;28;20455;-79
2022/10/02 07:26:42;;;;;;;11.97;3.10;;;12.50;99.90;;;;;;5004116;28;20453;-81
2022/10/02 07:29:24;;;;;;;4.57;2.83;;;12.50;99.90;;;;;;4994087;28;20453;-81
2022/10/02 07:32:11;;;;;;;9.07;3.03;;;12.50;99.90;;;;;;4994639;28;20445;-82
2022/10/02 07:34:50;;;;;;;5.63;3.13;;;12.60;99.90;;;;;;5003306;28;20459;-82
2022/10/02 07:37:26;;;;;;;6.83;5.83;;;12.50;99.90;;;;;;5011860;28;20514;-80
2022/10/02 07:40:13;;;;;;;8.37;4.20;;;12.50;99.90;;;;;;5012831;28;20471;-81
2022/10/02 07:42:55;;;;;;;8.03;3.50;;;12.50;99.90;;;;;;5013193;28;20464;-78
2022/10/02 07:45:28;;;;;;;5.17;3.37;;;12.50;99.90;;;;;;5012917;28;20475;-78
2022/10/02 07:48:27;;;;;;;7.67;2.93;;;12.70;99.90;;;;;;5013953;28;20854;-79
2022/10/02 07:51:04;;;;;;;5.67;2.40;;;12.80;99.90;;;;;;5011602;28;20468;-84
2022/10/02 07:53:39;;;;;;;6.80;3.80;;;12.90;99.90;;;;;;5012795;28;20472;-79
2022/10/02 07:56:09;;;;;;;9.13;3.57;;;13.20;99.90;;;;;;5008223;28;20448;-79
2022/10/02 07:58:40;;;;;;;6.10;3.43;;;13.30;99.90;;;;;;5011912;28;20540;-80
2022/10/02 08:01:13;;;;;;;7.07;3.33;;;13.40;99.90;;;;;;5013381;28;20824;-80
2022/10/02 08:03:45;;;;;;;9.70;3.03;;;13.40;99.90;;;;;;5012458;28;20468;-81
2022/10/02 08:06:14;;;;;;;11.03;2.90;;;13.50;99.90;;;;;;5008720;28;20495;-81
2022/10/02 08:08:46;;;;;;;5.10;2.40;;;13.60;99.90;;;;;;5009659;28;20820;-81
2022/10/02 08:11:18;;;;;;;4.10;2.10;;;13.70;99.90;;;;;;5009659;28;20460;-81
2022/10/02 08:13:49;;;;;;;7.37;2.53;;;13.80;99.90;;;;;;5013518;28;20948;-81
2022/10/02 08:16:21;;;;;;;10.00;2.97;;;13.80;99.90;;;;;;5013290;28;20456;-81
2022/10/02 08:18:53;;;;;;;7.37;3.57;;;14.00;99.90;;;;;;5012478;28;20987;-81
2022/10/02 08:21:24;;;;;;;6.93;3.13;;;13.90;99.90;;;;;;5013071;28;20471;-81
2022/10/02 08:23:55;;;;;;;6.33;3.10;;;14.00;99.90;;;;;;5013278;28;20566;-81
2022/10/02 08:26:28;;;;;;;5.03;2.60;;;14.00;99.90;;;;;;5012464;28;20452;-80
2022/10/02 08:29:00;;;;;;;4.90;2.60;;;14.00;99.90;;;;;;5013215;28;20500;-80
2022/10/02 08:31:27;;;;;;;5.40;2.97;;;;;;;;;;5013272;28;20824;-81
2022/10/02 08:33:55;;;;;;;5.53;2.70;;;;;;;;;;5013313;28;20463;-82
2022/10/02 08:36:57;;;;;;;7.47;3.40;;;14.00;99.90;;;;;;5010869;28;20564;-81
2022/10/02 08:39:52;;;;;;;7.47;2.73;;;13.90;99.90;;;;;;5006828;28;20468;-81
2022/10/02 08:42:47;;;;;;;7.53;3.07;;;14.00;99.90;;;;;;5004931;28;20488;-82
2022/10/02 08:45:49;;;;;;;4.00;1.90;;;14.30;99.90;;;;;;4973003;28;20941;-82
2022/10/02 08:48:54;;;;;;;5.40;2.30;;;14.60;99.90;;;;;;4991711;28;20500;-82
2022/10/02 08:51:53;;;;;;;3.10;1.90;;;15.70;99.90;;;;;;4992332;28;20905;-80
2022/10/02 08:54:55;;;;;;;2.70;1.47;;;16.30;99.90;;;;;;4993319;28;20458;-81
2022/10/02 08:58:00;;;;;;;4.40;1.77;;;16.30;99.90;;;;;;4990134;28;20460;-81
2022/10/02 09:00:41;;;;;;;1.97;1.20;;;15.90;99.90;;;;;;4983154;28;20466;-80
2022/10/02 09:03:44;;;;;;;6.10;2.40;;;16.00;99.90;;;;;;4993379;28;20846;-81
2022/10/02 09:06:55;;;;;;;3.13;1.50;;;16.30;99.90;;;;;;4926440;28;20496;-81
2022/10/02 09:09:54;;;;;;;2.10;1.43;;;15.90;99.90;;;;;;4914325;29;20497;-81
2022/10/02 09:12:57;;;;;;;4.57;1.27;;;16.40;99.90;;;;;;4991956;28;20449;-81
2022/10/02 09:15:38;;;;;;;4.50;1.10;;;16.70;99.90;;;;;;4993059;28;20475;-81
2022/10/02 09:18:16;;;;;;;2.27;1.10;;;17.00;99.90;;;;;;4993091;28;20467;-82
2022/10/02 09:21:25;;;;;;;3.33;1.30;;;17.70;99.90;;;;;;4992054;28;20959;-81
2022/10/02 09:24:37;;;;;;;3.27;1.10;;;17.40;99.90;;;;;;4968001;28;20448;-81
2022/10/02 09:27:48;;;;;;;2.50;1.00;;;17.20;99.90;;;;;;4993191;28;20464;-82
2022/10/02 09:30:25;;;;;;;2.47;1.60;;;;;;;;;;4993057;28;20453;-82
2022/10/02 09:33:43;;;;;;;6.33;2.10;;;16.40;99.90;;;;;;4993003;28;20453;-81
2022/10/02 09:36:44;;;;;;;6.10;2.40;;;16.50;99.90;;;;;;4909478;29;20460;-82
2022/10/02 09:39:36;;;;;;;6.60;3.23;;;16.60;99.90;;;;;;4914090;29;20489;-82
2022/10/02 09:42:36;;;;;;;12.00;4.80;;;16.70;99.90;;;;;;4989422;28;20480;-81
2022/10/02 09:45:35;;;;;;;2.80;1.80;;;16.90;99.90;;;;;;4993091;28;20930;-80
2022/10/02 09:48:44;;;;;;;3.60;1.57;;;17.10;99.90;;;;;;4993049;28;20579;-80
2022/10/02 09:51:46;;;;;;;14.70;5.00;;;17.00;99.90;;;;;;4992425;28;20452;-82
2022/10/02 09:54:43;;;;;;;8.83;3.77;;;17.00;99.90;;;;;;4979534;28;20890;-81
2022/10/02 09:57:49;;;;;;;2.23;1.23;;;17.00;99.90;;;;;;4996501;28;20464;-83
2022/10/02 10:00:20;;;;;;;3.07;1.50;;;16.70;99.90;;;;;;4959643;28;20488;-82
2022/10/02 10:03:15;;;;;;;7.40;3.53;;;16.70;99.90;;;;;;4996504;28;20536;-82
2022/10/02 10:06:14;;;;;;;1.60;1.07;;;16.50;99.90;;;;;;4952285;28;20504;-82
2022/10/02 10:09:26;;;;;;;2.97;0.87;;;16.50;99.90;;;;;;4984444;28;20507;-82
2022/10/02 10:12:28;;;;;;;1.57;0.50;;;16.50;99.90;;;;;;4996205;28;20936;-84
2022/10/02 10:15:30;;;;;;;1.13;0.60;;;16.40;99.90;;;;;;4994475;28;20453;-83
2022/10/02 10:18:43;;;;;;;0.80;0.50;;;16.30;99.90;;;;;;4996133;28;20447;-82
2022/10/02 10:21:51;;;;;;;6.80;1.80;;;16.30;99.90;;;;;;4948936;28;20983;-82
2022/10/02 10:24:42;;;;;;;4.13;2.33;;;16.10;99.90;;;;;;4982523;28;20811;-82
2022/10/02 10:27:30;;;;;;;7.23;2.70;;;15.90;99.90;;;;;;4995993;28;20469;-83
2022/10/02 10:30:31;;;;;;;4.13;2.10;;;15.80;99.90;;;;;;4953238;28;20832;-81
2022/10/02 10:33:23;;;;;;;2.30;2.10;;;15.80;99.90;;;;;;4995603;28;20448;-82
2022/10/02 10:39:07;;;;;;;6.17;2.10;;;15.40;99.90;;;;;;4994313;28;20437;-82
2022/10/02 10:42:01;;;;;;;8.23;2.93;;;15.30;99.90;;;;;;4995465;28;20980;-86
2022/10/02 10:44:59;;;;;;;5.43;3.13;;;15.20;99.90;;;;;;4995640;28;20457;-82
2022/10/02 10:48:07;;;;;;;4.53;2.80;;;15.30;99.90;;;;;;4995252;28;20477;-81
2022/10/02 10:50:53;;;;;;;4.73;2.60;;;15.50;99.90;;;;;;4994361;28;20476;-80
2022/10/02 10:53:38;;;;;;;5.77;2.50;;;15.50;99.90;;;;;;4992996;28;20971;-81
2022/10/02 10:56:35;;;;;;;3.23;2.77;;;15.60;99.90;;;;;;4995316;28;20445;-82
2022/10/02 10:59:49;;;;;;;4.67;2.97;;;15.60;99.90;;;;;;4995389;28;20507;-82
2022/10/02 11:02:52;;;;;;;5.47;4.63;;;15.30;99.90;;;;;;4994742;28;20980;-82
2022/10/02 11:05:51;;;;;;;7.00;6.40;;;14.90;99.90;;;;;;4963243;28;21037;-82
2022/10/02 11:08:44;;;;;;;3.30;2.40;;;15.10;99.90;;;;;;4995013;28;20496;-82
2022/10/02 11:11:21;;;;;;;8.00;2.80;;;15.10;99.90;;;;;;4995289;28;20465;-80
2022/10/02 11:14:04;;;;;;;1.70;1.57;;;15.20;99.90;;;;;;5013596;28;20466;-82
2022/10/02 11:16:58;;;;;;;1.40;1.30;;;15.30;99.90;;;;;;5008689;28;20847;-79
2022/10/02 11:19:51;;;;;;;4.80;1.73;;;15.30;99.90;;;;;;4993400;28;20457;-82
2022/10/02 11:22:42;;;;;;;2.67;1.80;;;15.20;99.90;;;;;;4997304;28;20455;-81
2022/10/02 11:25:21;;;;;;;7.53;5.10;;;15.20;99.90;;;;;;5012811;28;20456;-80
2022/10/02 11:28:17;;;;;;;3.03;1.83;;;15.20;99.90;;;;;;5014528;28;20459;-81
2022/10/02 11:30:54;;;;;;;5.27;3.70;;;15.10;99.90;;;;;;5013367;28;20515;-79
2022/10/02 11:33:43;;;;;;;2.23;1.90;;;15.00;99.90;;;;;;5013234;28;20775;-81
2022/10/02 11:36:41;;;;;;;5.23;4.30;;;14.90;99.90;;;;;;5011969;28;20445;-81
2022/10/02 11:39:16;;;;;;;10.10;9.10;;;14.70;99.90;;;;;;4988032;28;20531;-81
2022/10/02 11:42:08;;;;;;;14.60;11.40;;;14.60;99.90;;;;;;5012256;28;20530;-82
2022/10/02 11:44:53;;;;;;;6.13;5.03;;;14.70;99.90;;;;;;5012969;28;20480;-82
2022/10/02 11:47:49;;;;;;;2.10;1.90;;;14.60;99.90;;;;;;5011849;28;20464;-81
2022/10/02 11:50:47;;;;;;;8.90;6.53;;;14.40;99.90;;;;;;5010138;28;20496;-82
2022/10/02 11:53:37;;;;;;;11.93;6.00;;;14.30;99.90;;;;;;5013032;28;20975;-84
2022/10/02 11:56:35;;;;;;;3.13;2.80;;;14.30;99.90;;;;;;5008742;28;21079;-83
2022/10/02 11:59:18;;;;;;;3.37;2.00;;;14.10;99.90;;;;;;5013430;28;20456;-83
2022/10/02 12:01:52;;;;;;;4.40;1.10;;;14.00;99.90;;;;;;5012944;28;20480;-83
2022/10/02 12:04:35;;;;;;;1.30;1.10;;;14.00;99.90;;;;;;5011512;28;20540;-84
2022/10/02 12:07:27;;;;;;;1.30;1.20;;;14.00;99.90;;;;;;4972430;28;20478;-82
2022/10/02 12:10:15;;;;;;;3.40;2.13;;;14.10;99.90;;;;;;4965540;28;20493;-81
2022/10/02 12:12:50;;;;;;;1.50;1.23;;;14.10;99.90;;;;;;4966099;28;20466;-81
2022/10/02 12:15:29;;;;;;;1.57;1.40;;;14.00;99.90;;;;;;4974083;28;20458;-81
2022/10/02 12:18:18;;;;;;;5.60;2.33;;;14.00;99.90;;;;;;4969494;28;20458;-82
2022/10/02 12:27:01;;;;;;;1.00;1.00;;;13.80;99.90;;;;;;4956306;28;20442;-80
2022/10/02 12:29:40;;;;;;;1.20;1.10;;;13.60;99.90;;;;;;4973039;28;20944;-83
2022/10/02 12:32:19;;;;;;;1.40;1.30;;;13.60;99.90;;;;;;4972634;28;20842;-80
2022/10/02 12:34:57;;;;;;;1.03;0.90;;;13.50;99.90;;;;;;4970850;28;20470;-81
2022/10/02 12:37:32;;;;;;;1.60;1.43;;;13.30;99.90;;;;;;4972256;28;20462;-80
2022/10/02 12:40:13;;;;;;;1.20;1.10;;;13.30;99.90;;;;;;4973853;28;20458;-81
2022/10/02 12:43:15;;;;;;;0.97;0.87;;;13.40;99.90;;;;;;4974011;28;20992;-81
2022/10/02 12:46:13;;;;;;;3.50;1.20;;;13.40;99.90;;;;;;4967986;28;20477;-80
2022/10/02 12:48:56;;;;;;;1.57;0.93;;;13.40;99.90;;;;;;4974074;28;20497;-80
2022/10/02 12:51:38;;;;;;;0.70;0.70;;;13.50;99.90;;;;;;4971531;28;20470;-81
2022/10/02 12:54:39;;;;;;;1.17;0.93;;;13.60;99.90;;;;;;4973902;28;20461;-82
2022/10/02 13:00:17;;;;;;;1.27;0.97;;;13.30;99.90;;;;;;4971146;28;20811;-81
2022/10/02 13:03:18;;;;;;;2.43;0.90;;;13.40;99.90;;;;;;4972869;28;20450;-82
2022/10/02 13:06:32;;;;;;;1.80;1.00;;;13.50;99.90;;;;;;4965962;28;20488;-81
2022/10/02 13:09:10;;;;;;;2.00;0.83;;;13.50;99.90;;;;;;5011719;28;20503;-81
2022/10/02 13:11:48;;;;;;;1.10;1.00;;;13.50;99.90;;;;;;5012923;28;20883;-81
2022/10/02 13:14:35;;;;;;;1.70;1.27;;;13.60;99.90;;;;;;5012960;28;20470;-82
2022/10/02 13:17:27;;;;;;;1.03;0.73;;;13.60;99.90;;;;;;5012951;28;20452;-81
2022/10/02 13:20:03;;;;;;;5.37;0.87;;;13.60;99.90;;;;;;5011728;28;20459;-82
2022/10/02 13:22:39;;;;;;;0.90;0.50;;;13.50;99.90;;;;;;5012830;28;20975;-81
2022/10/02 13:25:35;;;;;;;0.63;0.60;;;13.60;99.90;;;;;;5012923;28;20448;-83
2022/10/02 13:28:26;;;;;;;1.00;0.60;;;13.60;99.90;;;;;;5016330;28;20461;-81
2022/10/02 13:31:04;;;;;;;1.47;0.87;;;13.50;99.90;;;;;;5015175;28;20466;-81
2022/10/02 13:33:48;;;;;;;1.60;0.97;;;13.60;99.90;;;;;;5016636;28;20494;-81
2022/10/02 13:36:19;;;;;;;3.67;2.67;;;13.80;99.90;;;;;;5015181;28;20539;-82
2022/10/02 13:39:28;;;;;;;4.47;3.87;;;14.00;99.90;;;;;;5017099;28;20444;-82
2022/10/02 13:42:13;;;;;;;4.50;4.10;;;14.00;99.90;;;;;;4974614;28;20467;-82
2022/10/02 13:44:47;;;;;;;6.53;5.83;;;14.10;99.90;;;;;;5016181;28;20471;-82
2022/10/02 13:47:39;;;;;;;2.83;2.63;;;14.20;99.90;;;;;;5016238;28;20468;-83
2022/10/02 13:50:22;;;;;;;2.47;2.27;;;14.30;99.90;;;;;;5014968;28;20550;-82
2022/10/02 13:53:05;;;;;;;2.20;1.93;;;14.40;99.90;;;;;;5015886;28;20456;-82
2022/10/02 13:55:39;;;;;;;0.60;0.60;;;14.40;99.90;;;;;;5015735;28;20841;-82
2022/10/02 13:58:23;;;;;;;0.50;0.40;;;14.20;99.90;;;;;;5016055;28;20805;-82
2022/10/02 14:01:08;;;;;;;0.60;0.40;;;14.40;99.90;;;;;;5015836;28;20455;-84
2022/10/02 14:04:03;;;;;;;0.50;0.47;;;14.30;99.90;;;;;;5016041;28;20456;-83
2022/10/02 14:06:34;;;;;;;0.60;0.60;;;14.20;99.90;;;;;;5014177;28;20511;-82
2022/10/02 14:09:19;;;;;;;0.77;0.77;;;14.10;99.90;;;;;;5015526;28;20484;-83
2022/10/02 14:12:00;;;;;;;0.40;0.40;;;14.00;99.90;;;;;;5012792;28;20970;-82
2022/10/02 14:14:39;;;;;;;0.63;0.60;;;13.80;99.90;;;;;;5015702;28;20517;-82
2022/10/02 14:17:21;;;;;;;0.60;0.50;;;13.80;99.90;;;;;;5015818;28;20456;-82